CheckWX is a tool to help pilots better visualize weather data.  It is not intended as a substitute for an official pre-flight weather briefing.

06:53:02 UTC

ORNI TAF
Al Najaf International Airport
Iraq
TAF ORNI 180400Z 1806/1906 32006KT 8000 NSC

Jun-18@
06:00 UTC

Jun-18 @ 06:00 UTC

Jun-19@
06:00 UTC

Jun-19 @ 06:00 UTC

TAF ORNI 180400Z 1806/1906 32006KT 8000 NSC
Wind
  • 320° at 6 KTS
Cloud Levels
  • No significant clouds